MID weather

Licenciado Manuel Crescencio Rejon Int Airport
Mérida, Yucatan, Mexico

Public forecast

Using degrees Celsius for public forecast. Weather courtesy of forecast.io.

METAR (pilot weather report)

Retrieved 2019/04/20 15:45 UTC (54 minutes ago):

MMMD 201545Z 36006KT 7SM FEW020 28/13 A3014 RMK 8/100

TAF (pilot weather forecast)

Forecast is more than 6 hours old.

Retrieved 2019/04/20 06:25 UTC (10 hours ago):

TAF MMMD 200419Z 2006/2112 33005KT P6SM SKC TX33/2020Z TN23/2012Z FM201600 03012KT P6SM SCT020 FM210200 08005KT P6SM SCT020